Time;durP1;ratioP1;P1;durP2;ratioP2;P2;SDS_P1;SDS_P2;PMS_P1;PMS_P2;Temp;Humidity;BMP_temperature;BMP_pressure;BME280_temperature;BME280_humidity;BME280_pressure;Samples;Min_cycle;Max_cycle;Signal;HPM_P1;HPM_P2
2022/07/24 00:00:13;;;;;;;;;;;;;;;27.83;82.37;98195.81;5143616;27;19923;-60
2022/07/24 00:02:39;;;;;;;;;;;;;;;27.88;82.83;98200.19;5142502;27;20002;-59
2022/07/24 00:05:06;;;;;;;;;;;;;;;27.70;83.47;98204.59;5143841;27;19931;-60
2022/07/24 00:07:35;;;;;;;;;;;;;;;27.81;83.27;98206.38;5146176;27;19934;-58
2022/07/24 00:10:01;;;;;;;;;;;;;;;27.94;82.61;98206.16;5145084;27;19930;-60
2022/07/24 00:12:27;;;;;;;;;;;;;;;28.00;82.22;98210.16;5139069;27;19931;-60
2022/07/24 00:14:54;;;;;;;;;;;;;;;28.06;81.81;98209.50;5142274;27;19920;-61
2022/07/24 00:17:20;;;;;;;;;;;;;;;28.10;82.03;98209.56;5145549;27;19919;-61
2022/07/24 00:19:46;;;;;;;;;;;;;;;28.13;81.89;98219.81;5145825;27;19923;-60
2022/07/24 00:22:13;;;;;;;;;;;;;;;28.11;81.88;98211.13;5143337;27;19986;-61
2022/07/24 00:24:41;;;;;;;;;;;;;;;28.14;81.81;98219.44;5142206;27;19924;-60
2022/07/24 00:27:07;;;;;;;;;;;;;;;28.10;81.88;98215.06;5143471;27;19966;-61
2022/07/24 00:29:33;;;;;;;;;;;;;;;28.13;81.69;98217.06;5145419;27;19934;-61
2022/07/24 00:32:00;;;;;;;;;;;;;;;28.11;81.48;98220.16;5144806;27;19995;-62
2022/07/24 00:34:26;;;;;;;;;;;;;;;28.06;81.31;98208.72;5141887;27;19919;-61
2022/07/24 00:36:52;;;;;;;;;;;;;;;28.09;81.36;98213.47;5141868;27;19923;-61
2022/07/24 00:39:19;;;;;;;;;;;;;;;27.91;81.41;98207.69;5145003;27;19979;-61
2022/07/24 00:41:46;;;;;;;;;;;;;;;27.61;83.35;98212.28;5143844;27;19927;-60
2022/07/24 00:44:14;;;;;;;;;;;;;;;27.15;86.64;98214.22;5141792;27;19963;-60
2022/07/24 00:46:41;;;;;;;;;;;;;;;26.85;88.73;98210.53;5141926;27;19946;-61
2022/07/24 00:49:09;;;;;;;;;;;;;;;26.69;90.77;98211.38;5143262;27;20257;-60
2022/07/24 00:51:36;;;;;;;;;;;;;;;26.55;91.56;98211.09;5143896;27;20222;-61
2022/07/24 00:54:03;;;;;;;;;;;;;;;26.43;91.84;98213.94;5144069;27;19924;-59
2022/07/24 00:56:30;;;;;;;;;;;;;;;26.41;92.16;98207.25;5141292;27;20419;-60
2022/07/24 00:58:58;;;;;;;;;;;;;;;26.98;88.70;98201.78;5141226;27;19955;-60
2022/07/24 01:01:24;;;;;;;;;;;;;;;27.01;87.97;98203.00;5144626;27;19923;-60
2022/07/24 01:03:50;;;;;;;;;;;;;;;27.16;87.45;98202.91;5144883;27;19959;-60
2022/07/24 01:06:17;;;;;;;;;;;;;;;27.29;86.34;98203.50;5141647;27;19987;-60
2022/07/24 01:08:43;;;;;;;;;;;;;;;27.38;85.38;98201.31;5140850;27;19935;-60
2022/07/24 01:11:10;;;;;;;;;;;;;;;27.58;83.88;98204.78;5142926;27;20018;-61
2022/07/24 01:13:37;;;;;;;;;;;;;;;27.65;83.24;98202.97;5141254;27;19930;-60
2022/07/24 01:16:06;;;;;;;;;;;;;;;27.70;82.68;98202.66;5143040;27;19923;-61
2022/07/24 01:18:32;;;;;;;;;;;;;;;27.55;82.89;98206.31;5140854;27;19924;-61
2022/07/24 01:21:00;;;;;;;;;;;;;;;27.63;83.22;98205.31;5140834;27;19923;-60
2022/07/24 01:23:26;;;;;;;;;;;;;;;27.64;82.87;98209.59;5144486;27;19987;-60
2022/07/24 01:25:53;;;;;;;;;;;;;;;27.62;82.09;98195.47;5144573;27;20055;-61
2022/07/24 01:28:19;;;;;;;;;;;;;;;27.39;83.65;98200.13;5141037;27;20451;-61
2022/07/24 01:30:46;;;;;;;;;;;;;;;27.16;85.56;98199.34;5140856;27;19963;-60
2022/07/24 01:33:13;;;;;;;;;;;;;;;27.31;84.89;98195.72;5142759;27;19935;-60
2022/07/24 01:35:40;;;;;;;;;;;;;;;27.35;84.21;98204.78;5144144;27;19941;-60
2022/07/24 01:38:07;;;;;;;;;;;;;;;27.39;84.09;98204.88;5142551;27;20490;-60
2022/07/24 01:40:34;;;;;;;;;;;;;;;27.49;83.92;98205.06;5140637;27;19966;-61
2022/07/24 01:43:01;;;;;;;;;;;;;;;27.48;83.75;98205.44;5137613;27;20319;-61
2022/07/24 01:45:27;;;;;;;;;;;;;;;27.33;84.19;98204.34;5143718;27;19923;-60
2022/07/24 01:47:54;;;;;;;;;;;;;;;26.94;86.56;98205.59;5143838;27;19931;-61
2022/07/24 01:50:20;;;;;;;;;;;;;;;26.96;87.41;98206.03;5139891;27;19970;-61
2022/07/24 01:52:47;;;;;;;;;;;;;;;27.23;86.18;98207.72;5140357;27;19924;-61
2022/07/24 01:55:15;;;;;;;;;;;;;;;27.44;84.80;98207.31;5142620;27;19927;-61
2022/07/24 01:57:41;;;;;;;;;;;;;;;27.49;84.39;98205.06;5143764;27;19930;-62
2022/07/24 02:00:11;;;;;;;;;;;;;;;27.53;83.96;98208.66;5141788;27;19923;-61
2022/07/24 02:02:37;;;;;;;;;;;;;;;27.59;83.81;98204.44;5139892;27;19958;-61
2022/07/24 02:05:04;;;;;;;;;;;;;;;27.55;83.89;98211.81;5141015;27;19924;-60
2022/07/24 02:07:31;;;;;;;;;;;;;;;27.55;83.89;98208.28;5143300;27;19983;-60
2022/07/24 02:09:57;;;;;;;;;;;;;;;27.59;83.50;98203.66;5143154;27;19924;-60
2022/07/24 02:12:25;;;;;;;;;;;;;;;27.58;82.84;98200.09;5136824;27;19927;-60
2022/07/24 02:14:51;;;;;;;;;;;;;;;27.49;83.53;98202.31;5140000;27;19951;-61
2022/07/24 02:17:18;;;;;;;;;;;;;;;27.46;84.29;98208.53;5142672;27;19986;-60
2022/07/24 02:19:44;;;;;;;;;;;;;;;27.50;83.49;98209.38;5143576;27;19973;-61
2022/07/24 02:22:10;;;;;;;;;;;;;;;27.45;83.74;98200.69;5141162;27;19968;-61
2022/07/24 02:24:37;;;;;;;;;;;;;;;27.48;83.51;98205.44;5139668;27;19983;-60
2022/07/24 02:27:03;;;;;;;;;;;;;;;27.49;83.33;98207.00;5140722;27;19935;-60
2022/07/24 02:29:31;;;;;;;;;;;;;;;27.51;83.31;98210.97;5143374;27;20304;-60
2022/07/24 02:31:57;;;;;;;;;;;;;;;27.48;83.23;98206.19;5143116;27;19934;-59
2022/07/24 02:34:24;;;;;;;;;;;;;;;27.48;83.08;98214.44;5139460;27;19927;-60
2022/07/24 02:36:50;;;;;;;;;;;;;;;27.48;83.27;98217.19;5139134;27;19931;-61
2022/07/24 02:39:16;;;;;;;;;;;;;;;27.46;83.63;98215.97;5141844;27;19927;-60
2022/07/24 02:41:43;;;;;;;;;;;;;;;27.32;84.13;98216.50;5141343;27;19924;-60
2022/07/24 02:44:10;;;;;;;;;;;;;;;27.09;85.96;98221.16;5138881;27;19923;-60
2022/07/24 02:46:38;;;;;;;;;;;;;;;26.76;87.79;98225.22;5138705;27;19927;-60
2022/07/24 02:49:04;;;;;;;;;;;;;;;26.55;90.14;98227.53;5139838;27;20228;-61
2022/07/24 02:51:30;;;;;;;;;;;;;;;26.27;92.03;98227.69;5142542;27;19931;-59
2022/07/24 02:53:57;;;;;;;;;;;;;;;26.47;91.20;98220.28;5142703;27;19923;-60
2022/07/24 02:56:23;;;;;;;;;;;;;;;26.26;91.93;98223.38;5139020;27;19924;-60
2022/07/24 02:58:49;;;;;;;;;;;;;;;25.64;97.38;98217.97;5139236;27;19935;-60
2022/07/24 03:01:16;;;;;;;;;;;;;;;25.23;100.00;98227.47;5141903;27;20005;-61
2022/07/24 03:03:44;;;;;;;;;;;;;;;25.13;100.00;98220.56;5141675;27;19988;-61
2022/07/24 03:06:10;;;;;;;;;;;;;;;25.78;97.68;98224.56;5140335;27;19958;-60
2022/07/24 03:08:37;;;;;;;;;;;;;;;25.36;99.78;98228.97;5138808;27;19924;-60
2022/07/24 03:11:03;;;;;;;;;;;;;;;26.20;94.03;98224.00;5139651;27;19962;-60
2022/07/24 03:13:29;;;;;;;;;;;;;;;26.44;91.10;98234.72;5139295;27;19923;-61
2022/07/24 03:15:56;;;;;;;;;;;;;;;26.36;90.73;98223.97;5142439;27;19927;-60
2022/07/24 03:18:22;;;;;;;;;;;;;;;26.40;91.00;98228.34;5130401;28;19982;-60
2022/07/24 03:20:50;;;;;;;;;;;;;;;26.50;90.54;98230.53;5138831;27;19983;-59
2022/07/24 03:23:17;;;;;;;;;;;;;;;26.36;90.82;98224.75;5141335;28;19978;-60
2022/07/24 03:25:43;;;;;;;;;;;;;;;25.73;95.20;98227.59;5142187;28;19923;-60
2022/07/24 03:28:10;;;;;;;;;;;;;;;25.28;99.21;98226.41;5140378;28;19923;-60
2022/07/24 03:30:36;;;;;;;;;;;;;;;25.60;98.24;98234.31;5137738;28;19928;-61
2022/07/24 03:33:02;;;;;;;;;;;;;;;25.25;100.00;98239.63;5139317;28;19923;-61
2022/07/24 03:35:29;;;;;;;;;;;;;;;25.27;100.00;98252.97;5142327;28;19923;-60
2022/07/24 03:37:57;;;;;;;;;;;;;;;25.63;98.13;98238.25;5142325;28;19930;-60
2022/07/24 03:40:23;;;;;;;;;;;;;;;25.11;100.00;98236.53;5130506;28;20425;-61
2022/07/24 03:42:50;;;;;;;;;;;;;;;24.93;100.00;98239.94;5135553;28;19978;-60
2022/07/24 03:45:16;;;;;;;;;;;;;;;25.06;100.00;98242.25;5140868;28;19932;-60
2022/07/24 03:47:43;;;;;;;;;;;;;;;25.03;100.00;98247.63;5142079;28;20379;-60
2022/07/24 03:50:09;;;;;;;;;;;;;;;25.11;100.00;98238.47;5140266;28;19923;-60
2022/07/24 03:52:36;;;;;;;;;;;;;;;25.19;100.00;98241.03;5138508;28;19927;-60
2022/07/24 03:55:04;;;;;;;;;;;;;;;25.33;100.00;98239.81;5139104;28;19923;-59
2022/07/24 03:57:30;;;;;;;;;;;;;;;25.57;98.53;98243.22;5141036;28;19923;-60
2022/07/24 03:59:56;;;;;;;;;;;;;;;25.70;97.65;98238.44;5141984;28;20019;-60
2022/07/24 04:02:23;;;;;;;;;;;;;;;25.75;97.54;98233.50;5129995;28;19924;-59
2022/07/24 04:04:49;;;;;;;;;;;;;;;25.81;96.04;98244.97;5138644;28;20023;-60
2022/07/24 04:07:16;;;;;;;;;;;;;;;25.94;94.68;98237.44;5141129;28;19970;-60
2022/07/24 04:09:42;;;;;;;;;;;;;;;26.33;92.44;98239.19;5142055;28;19930;-60
2022/07/24 04:12:10;;;;;;;;;;;;;;;26.47;91.30;98250.44;5136980;28;19924;-59
2022/07/24 04:14:36;;;;;;;;;;;;;;;26.51;90.22;98254.03;5141045;27;19935;-60
2022/07/24 04:17:03;;;;;;;;;;;;;;;26.49;91.17;98253.59;5143121;27;19924;-60
2022/07/24 04:19:29;;;;;;;;;;;;;;;26.61;90.33;98250.75;5146024;27;19990;-60
2022/07/24 04:21:56;;;;;;;;;;;;;;;26.62;90.13;98257.00;5145684;27;20406;-60
2022/07/24 04:24:23;;;;;;;;;;;;;;;26.58;89.78;98245.97;5133891;27;19928;-60
2022/07/24 04:26:49;;;;;;;;;;;;;;;26.21;92.49;98248.28;5141817;27;19973;-60
2022/07/24 04:29:17;;;;;;;;;;;;;;;26.10;93.78;98254.66;5144266;27;19974;-59
2022/07/24 04:31:43;;;;;;;;;;;;;;;26.28;93.16;98253.13;5145390;27;19949;-60
2022/07/24 04:34:10;;;;;;;;;;;;;;;26.19;93.32;98256.06;5143380;27;19935;-61
2022/07/24 04:36:36;;;;;;;;;;;;;;;26.44;92.07;98253.09;5141821;27;19951;-60
2022/07/24 04:39:03;;;;;;;;;;;;;;;26.53;91.14;98253.66;5142284;27;19931;-60
2022/07/24 04:41:29;;;;;;;;;;;;;;;26.52;90.92;98252.88;5145234;27;19956;-61
2022/07/24 04:43:56;;;;;;;;;;;;;;;26.48;91.55;98252.03;5141847;27;19924;-61
2022/07/24 04:46:24;;;;;;;;;;;;;;;26.53;91.50;98254.47;5132655;27;19931;-60
2022/07/24 04:48:50;;;;;;;;;;;;;;;26.36;92.77;98254.09;5141523;27;19924;-60
2022/07/24 04:51:16;;;;;;;;;;;;;;;26.42;92.44;98261.69;5144204;27;19947;-60
2022/07/24 04:53:43;;;;;;;;;;;;;;;26.50;91.67;98257.94;5145228;27;19967;-59
2022/07/24 04:56:09;;;;;;;;;;;;;;;26.16;95.58;98255.97;5143132;27;19923;-60
2022/07/24 04:58:35;;;;;;;;;;;;;;;26.40;93.18;98261.22;5141350;27;19935;-61
2022/07/24 05:01:02;;;;;;;;;;;;;;;26.51;92.63;98261.47;5141962;27;19930;-59
2022/07/24 05:03:30;;;;;;;;;;;;;;;26.59;91.45;98253.03;5144696;27;19923;-60
2022/07/24 05:05:56;;;;;;;;;;;;;;;26.62;91.81;98260.53;5144663;27;19923;-60
2022/07/24 05:08:22;;;;;;;;;;;;;;;26.77;90.65;98267.09;5132589;27;19924;-59
2022/07/24 05:10:49;;;;;;;;;;;;;;;26.87;89.66;98254.78;5140894;27;19959;-59
2022/07/24 05:13:15;;;;;;;;;;;;;;;26.88;90.19;98264.59;5140062;27;19930;-60
2022/07/24 05:15:42;;;;;;;;;;;;;;;26.90;90.30;98267.78;5144415;27;20113;-60
2022/07/24 05:18:08;;;;;;;;;;;;;;;26.80;91.66;98264.47;5142698;27;20499;-60
2022/07/24 05:20:36;;;;;;;;;;;;;;;26.58;92.83;98265.16;5140638;27;19931;-60
2022/07/24 05:23:02;;;;;;;;;;;;;;;26.32;95.24;98258.69;5141469;27;19931;-60
2022/07/24 05:25:29;;;;;;;;;;;;;;;26.46;93.97;98261.75;5143526;27;19924;-60
2022/07/24 05:27:55;;;;;;;;;;;;;;;26.56;93.34;98264.72;5144378;27;19924;-61
2022/07/24 05:30:21;;;;;;;;;;;;;;;26.65;92.97;98259.81;5140430;27;19979;-60
2022/07/24 05:32:48;;;;;;;;;;;;;;;26.68;92.69;98266.50;5140518;27;20031;-60
2022/07/24 05:35:14;;;;;;;;;;;;;;;26.75;92.37;98270.19;5142653;27;19959;-59
2022/07/24 05:37:42;;;;;;;;;;;;;;;26.82;91.21;98261.38;5143917;27;19926;-60
2022/07/24 05:40:08;;;;;;;;;;;;;;;26.16;100.00;98258.72;5142274;27;19928;-60
2022/07/24 05:42:35;;;;;;;;;;;;;;;26.16;96.49;98266.94;5137075;27;19923;-59
2022/07/24 05:45:01;;;;;;;;;;;;;;;26.15;99.03;98259.84;5140302;27;19946;-60
2022/07/24 05:47:28;;;;;;;;;;;;;;;26.52;96.74;98263.81;5143529;27;19956;-60
2022/07/24 05:49:54;;;;;;;;;;;;;;;26.86;92.32;98264.19;5143693;27;20284;-60
2022/07/24 05:52:20;;;;;;;;;;;;;;;26.66;97.33;98266.88;5140175;27;20323;-60
2022/07/24 05:54:48;;;;;;;;;;;;;;;26.89;92.72;98266.19;5139829;27;19924;-61
2022/07/24 05:57:14;;;;;;;;;;;;;;;27.24;91.00;98261.38;5142309;27;19934;-60
2022/07/24 05:59:41;;;;;;;;;;;;;;;27.28;90.97;98262.25;5143509;27;19970;-61
2022/07/24 06:02:07;;;;;;;;;;;;;;;27.32;94.19;98268.59;5141955;27;19924;-60
2022/07/24 06:04:35;;;;;;;;;;;;;;;27.33;92.25;98264.69;5139799;27;19977;-60
2022/07/24 06:07:02;;;;;;;;;;;;;;;27.49;91.70;98267.34;5140349;27;19953;-60
2022/07/24 06:09:28;;;;;;;;;;;;;;;27.32;94.29;98263.13;5143447;27;20484;-61
2022/07/24 06:11:56;;;;;;;;;;;;;;;27.34;93.49;98264.34;5140614;27;19926;-61
2022/07/24 06:14:22;;;;;;;;;;;;;;;27.53;92.23;98262.72;5139749;27;19999;-60
2022/07/24 06:16:48;;;;;;;;;;;;;;;27.80;90.85;98262.41;5139749;27;19982;-60
2022/07/24 06:19:15;;;;;;;;;;;;;;;27.89;91.54;98265.69;5142086;27;19924;-60
2022/07/24 06:21:41;;;;;;;;;;;;;;;27.77;90.82;98267.84;5141920;27;19923;-60
2022/07/24 06:24:07;;;;;;;;;;;;;;;27.76;93.49;98271.75;5141541;27;19955;-59
2022/07/24 06:26:34;;;;;;;;;;;;;;;27.53;95.05;98270.97;5139599;27;19924;-59
2022/07/24 06:29:02;;;;;;;;;;;;;;;27.64;93.95;98267.22;5138620;27;19927;-60
2022/07/24 06:31:28;;;;;;;;;;;;;;;27.91;92.11;98265.34;5142839;27;19930;-60
2022/07/24 06:33:54;;;;;;;;;;;;;;;28.18;90.94;98274.41;5142779;27;20252;-60
2022/07/24 06:36:21;;;;;;;;;;;;;;;28.32;90.78;98269.09;5139259;27;19962;-60
2022/07/24 06:38:47;;;;;;;;;;;;;;;27.68;95.21;98273.59;5139262;27;19991;-60
2022/07/24 06:41:14;;;;;;;;;;;;;;;27.29;99.07;98274.81;5141720;27;19924;-61
2022/07/24 06:43:40;;;;;;;;;;;;;;;26.92;100.00;98260.00;5139559;27;19919;-60
2022/07/24 06:46:08;;;;;;;;;;;;;;;26.92;100.00;98266.28;5141031;27;19951;-61
2022/07/24 06:48:34;;;;;;;;;;;;;;;26.93;100.00;98265.09;5139341;27;19956;-60
2022/07/24 06:51:01;;;;;;;;;;;;;;;26.85;100.00;98271.59;5139764;27;20014;-60
2022/07/24 06:53:27;;;;;;;;;;;;;;;26.57;100.00;98274.53;5142808;27;19975;-60
2022/07/24 06:55:55;;;;;;;;;;;;;;;25.98;100.00;98273.91;5142452;27;19919;-60
2022/07/24 06:58:21;;;;;;;;;;;;;;;25.85;100.00;98267.75;5139492;27;19923;-60
2022/07/24 07:00:48;;;;;;;;;;;;;;;26.52;100.00;98263.81;5139180;27;19928;-60
2022/07/24 07:03:17;;;;;;;;;;;;;;;26.84;100.00;98261.78;5141613;27;19966;-60
2022/07/24 07:05:43;;;;;;;;;;;;;;;27.18;100.00;98254.63;5142682;27;19924;-60
2022/07/24 07:08:09;;;;;;;;;;;;;;;26.94;100.00;98261.22;5140394;27;19991;-61
2022/07/24 07:10:36;;;;;;;;;;;;;;;26.93;100.00;98261.56;5138840;27;19949;-60
2022/07/24 07:13:02;;;;;;;;;;;;;;;26.73;100.00;98253.34;5136019;28;19924;-60
2022/07/24 07:15:28;;;;;;;;;;;;;;;27.48;98.52;98258.31;5142441;27;19968;-60
2022/07/24 07:17:55;;;;;;;;;;;;;;;28.01;93.74;98255.69;5142256;27;19919;-60
2022/07/24 07:20:22;;;;;;;;;;;;;;;27.84;93.15;98257.78;5138632;27;20431;-60
2022/07/24 07:22:49;;;;;;;;;;;;;;;27.35;95.38;98256.91;5138399;27;19924;-60
2022/07/24 07:25:15;;;;;;;;;;;;;;;27.72;95.08;98252.50;5140844;28;19924;-60
2022/07/24 07:27:41;;;;;;;;;;;;;;;28.40;90.37;98251.59;5142095;28;19949;-60
2022/07/24 07:30:09;;;;;;;;;;;;;;;27.91;92.02;98256.31;5140500;28;19920;-60
2022/07/24 07:32:35;;;;;;;;;;;;;;;27.29;97.25;98252.88;5138601;28;19926;-60
2022/07/24 07:35:02;;;;;;;;;;;;;;;26.87;99.84;98252.84;5138732;28;19979;-61
2022/07/24 07:37:30;;;;;;;;;;;;;;;26.56;100.00;98264.72;5142047;28;19935;-60
2022/07/24 07:39:57;;;;;;;;;;;;;;;26.94;100.00;98253.00;5140877;28;19924;-60
2022/07/24 07:42:23;;;;;;;;;;;;;;;27.14;100.00;98257.28;5126836;28;19927;-61
2022/07/24 07:44:50;;;;;;;;;;;;;;;28.08;93.08;98258.56;5138059;28;19983;-61
2022/07/24 07:47:16;;;;;;;;;;;;;;;27.26;99.28;98264.56;5135402;28;19924;-60
2022/07/24 07:49:43;;;;;;;;;;;;;;;26.82;100.00;98272.31;5144740;27;19948;-60
2022/07/24 07:52:09;;;;;;;;;;;;;;;26.72;100.00;98270.91;5144379;27;19923;-60
2022/07/24 07:54:37;;;;;;;;;;;;;;;27.50;99.08;98256.03;5142305;27;20324;-60
2022/07/24 07:57:03;;;;;;;;;;;;;;;27.31;100.00;98267.00;5142987;27;19923;-61
2022/07/24 07:59:30;;;;;;;;;;;;;;;27.36;100.00;98274.94;5145912;27;19924;-61
2022/07/24 08:01:56;;;;;;;;;;;;;;;26.81;100.00;98274.28;5146389;27;19923;-61
2022/07/24 08:04:22;;;;;;;;;;;;;;;26.81;100.00;98268.78;5134054;27;19983;-60
2022/07/24 08:06:49;;;;;;;;;;;;;;;26.99;100.00;98271.06;5142427;27;19931;-61
2022/07/24 08:09:15;;;;;;;;;;;;;;;26.83;100.00;98279.41;5143542;27;19924;-61
2022/07/24 08:11:43;;;;;;;;;;;;;;;27.06;100.00;98273.97;5144733;27;19956;-61
2022/07/24 08:14:09;;;;;;;;;;;;;;;26.75;100.00;98274.88;5141962;27;19923;-62
2022/07/24 08:16:36;;;;;;;;;;;;;;;26.59;100.00;98271.41;5141951;27;19996;-62
2022/07/24 08:19:02;;;;;;;;;;;;;;;27.01;100.00;98271.53;5142636;27;19931;-60
2022/07/24 08:21:28;;;;;;;;;;;;;;;28.34;93.88;98269.56;5145526;27;19930;-61
2022/07/24 08:23:55;;;;;;;;;;;;;;;28.16;93.64;98272.00;5145709;27;19923;-61
2022/07/24 08:26:21;;;;;;;;;;;;;;;28.47;91.50;98267.38;5142335;27;19924;-61
2022/07/24 08:28:49;;;;;;;;;;;;;;;27.54;97.22;98273.34;5142194;27;19924;-61
2022/07/24 08:31:15;;;;;;;;;;;;;;;27.04;100.00;98265.31;5144175;27;19965;-61
2022/07/24 08:33:41;;;;;;;;;;;;;;;27.04;100.00;98268.88;5145452;27;19994;-62
2022/07/24 08:36:08;;;;;;;;;;;;;;;26.69;100.00;98260.69;5143720;27;20442;-60
2022/07/24 08:38:34;;;;;;;;;;;;;;;27.18;100.00;98260.09;5141807;27;19977;-61
2022/07/24 08:41:01;;;;;;;;;;;;;;;27.83;96.78;98258.94;5142086;27;19920;-61
2022/07/24 08:43:27;;;;;;;;;;;;;;;28.06;94.13;98263.63;5141947;27;19970;-61
2022/07/24 08:45:56;;;;;;;;;;;;;;;28.49;91.64;98267.78;5144915;27;19966;-60
2022/07/24 08:48:23;;;;;;;;;;;;;;;28.43;88.63;98267.31;5141429;27;19931;-61
2022/07/24 08:50:51;;;;;;;;;;;;;;;28.19;91.54;98259.53;5141480;27;19954;-60
2022/07/24 08:53:19;;;;;;;;;;;;;;;28.11;89.54;98263.31;5143924;27;19966;-62
2022/07/24 08:55:46;;;;;;;;;;;;;;;28.63;88.79;98266.00;5144752;27;19963;-61
2022/07/24 08:58:12;;;;;;;;;;;;;;;28.12;90.33;98264.91;5142866;27;19962;-62
2022/07/24 09:00:38;;;;;;;;;;;;;;;28.41;90.28;98264.94;5140048;27;19924;-61
2022/07/24 09:03:06;;;;;;;;;;;;;;;28.38;88.13;98264.88;5141935;27;19933;-61
2022/07/24 09:05:34;;;;;;;;;;;;;;;27.83;93.18;98260.88;5144769;27;19923;-61
2022/07/24 09:08:07;;;;;;;;;;;;;;;28.05;92.83;98253.81;5143740;27;19991;-60
2022/07/24 09:10:34;;;;;;;;;;;;;;;28.36;88.07;98257.03;5140713;27;19924;-60
2022/07/24 09:13:12;;;;;;;;;;;;;;;28.92;86.75;98253.44;5137725;27;19924;-59
2022/07/24 09:15:43;;;;;;;;;;;;;;;29.05;84.10;98248.47;5144393;27;19982;-60
2022/07/24 09:18:25;;;;;;;;;;;;;;;28.99;83.43;98261.00;5142995;27;19930;-61
2022/07/24 09:20:51;;;;;;;;;;;;;;;28.72;82.60;98247.31;5140957;27;19983;-61
2022/07/24 09:23:20;;;;;;;;;;;;;;;29.28;81.55;98241.69;5143498;27;19928;-61
2022/07/24 09:25:50;;;;;;;;;;;;;;;29.66;79.75;98247.94;5144628;27;19924;-60
2022/07/24 09:28:17;;;;;;;;;;;;;;;29.69;72.29;98242.47;5141541;27;19927;-61
2022/07/24 09:30:44;;;;;;;;;;;;;;;29.70;72.96;98249.56;5140827;27;19928;-60
2022/07/24 09:33:17;;;;;;;;;;;;;;;30.10;68.33;98247.91;5142326;27;19923;-61
2022/07/24 09:35:44;;;;;;;;;;;;;;;28.82;72.77;98245.84;5143973;27;19928;-61
2022/07/24 09:38:12;;;;;;;;;;;;;;;28.98;76.60;98240.16;5142260;27;19924;-62
2022/07/24 09:40:39;;;;;;;;;;;;;;;29.44;76.22;98239.50;5140679;27;19924;-59
2022/07/24 09:43:16;;;;;;;;;;;;;;;29.54;75.11;98238.00;5137896;27;20605;-61
2022/07/24 09:45:54;;;;;;;;;;;;;;;29.50;69.11;98241.88;5143937;27;19928;-61
2022/07/24 09:48:23;;;;;;;;;;;;;;;29.41;58.96;98234.75;5140704;27;19974;-61
2022/07/24 09:50:53;;;;;;;;;;;;;;;29.43;63.16;98228.88;5140692;27;19924;-60
2022/07/24 09:53:20;;;;;;;;;;;;;;;28.81;65.91;98236.81;5143331;27;20512;-60
2022/07/24 09:55:56;;;;;;;;;;;;;;;28.64;65.29;98234.63;5143918;27;19923;-61
2022/07/24 09:58:23;;;;;;;;;;;;;;;29.18;67.33;98228.59;5140399;27;19924;-61
2022/07/24 10:00:50;;;;;;;;;;;;;;;29.27;65.08;98226.38;5140182;27;19924;-61
2022/07/24 10:03:19;;;;;;;;;;;;;;;30.04;64.89;98219.16;5142701;27;19931;-62
2022/07/24 10:05:47;;;;;;;;;;;;;;;30.20;63.41;98219.66;5143797;27;19927;-60
2022/07/24 10:08:14;;;;;;;;;;;;;;;30.62;62.66;98217.13;5141493;27;19959;-61
2022/07/24 10:10:41;;;;;;;;;;;;;;;30.82;60.50;98220.38;5140148;27;19924;-61
2022/07/24 10:13:08;;;;;;;;;;;;;;;30.91;58.00;98215.28;5137487;27;20003;-60
2022/07/24 10:15:38;;;;;;;;;;;;;;;30.86;59.84;98212.88;5143204;27;19966;-60
2022/07/24 10:18:15;;;;;;;;;;;;;;;31.07;58.86;98212.19;5142286;27;19923;-61
2022/07/24 10:20:43;;;;;;;;;;;;;;;30.63;56.50;98204.94;5139998;27;19941;-61
2022/07/24 10:23:17;;;;;;;;;;;;;;;30.43;55.58;98209.16;5141214;27;19920;-61
2022/07/24 10:25:53;;;;;;;;;;;;;;;29.79;56.38;98203.22;5143419;27;19924;-61
2022/07/24 10:28:26;;;;;;;;;;;;;;;29.69;57.40;98206.66;5140079;27;19928;-61
2022/07/24 10:30:52;;;;;;;;;;;;;;;30.17;58.63;98192.88;5139929;27;19928;-61
2022/07/24 10:33:19;;;;;;;;;;;;;;;30.74;57.72;98196.69;5137991;27;19983;-61
2022/07/24 10:35:46;;;;;;;;;;;;;;;30.14;53.77;98193.63;5139650;27;20588;-61
2022/07/24 10:38:17;;;;;;;;;;;;;;;30.02;55.62;98197.47;5141766;27;19931;-61
2022/07/24 10:40:46;;;;;;;;;;;;;;;29.65;53.87;98205.06;5143017;27;19970;-61
2022/07/24 10:43:13;;;;;;;;;;;;;;;29.17;54.94;98204.22;5134192;27;19928;-62
2022/07/24 10:45:40;;;;;;;;;;;;;;;29.65;55.94;98194.06;5142669;27;19924;-61
2022/07/24 10:48:26;;;;;;;;;;;;;;;29.68;55.28;98193.31;5141419;27;19924;-62
2022/07/24 10:51:05;;;;;;;;;;;;;;;30.03;56.00;98188.06;5139366;27;19989;-62
2022/07/24 10:54:04;;;;;;;;;;;;;;;30.16;54.97;98188.53;5131440;27;20527;-61
2022/07/24 10:56:41;;;;;;;;;;;;;;;30.32;54.74;98189.00;5075820;28;20335;-61
2022/07/24 10:59:08;;;;;;;;;;;;;;;30.44;52.33;98183.19;5129739;27;19923;-62
2022/07/24 11:01:36;;;;;;;;;;;;;;;30.46;54.66;98178.88;5142359;27;19923;-62
2022/07/24 11:04:04;;;;;;;;;;;;;;;30.62;53.30;98181.28;5141678;27;19924;-63
2022/07/24 11:06:41;;;;;;;;;;;;;;;30.35;51.86;98186.28;5139096;27;19923;-61
2022/07/24 11:09:07;;;;;;;;;;;;;;;30.34;52.08;98181.13;5140207;27;20040;-62
2022/07/24 11:11:33;;;;;;;;;;;;;;;30.36;52.66;98179.56;5141357;27;19927;-60
2022/07/24 11:14:01;;;;;;;;;;;;;;;30.74;53.15;98178.19;5138888;28;19923;-61
2022/07/24 11:16:32;;;;;;;;;;;;;;;31.00;52.26;98175.13;5138854;27;19954;-62
2022/07/24 11:19:17;;;;;;;;;;;;;;;30.72;49.58;98180.53;5138847;27;19937;-62
2022/07/24 11:21:44;;;;;;;;;;;;;;;30.39;51.22;98176.06;5142335;28;20026;-60
2022/07/24 11:24:17;;;;;;;;;;;;;;;30.37;52.50;98172.09;5139472;27;19924;-62
2022/07/24 11:26:46;;;;;;;;;;;;;;;30.50;50.96;98167.84;5138643;28;20025;-61
2022/07/24 11:29:14;;;;;;;;;;;;;;;30.53;52.33;98164.31;5140566;28;19928;-61
2022/07/24 11:31:41;;;;;;;;;;;;;;;30.16;50.87;98164.53;5142226;28;19931;-61
2022/07/24 11:34:08;;;;;;;;;;;;;;;30.02;51.37;98155.41;5140473;28;19962;-61
2022/07/24 11:36:35;;;;;;;;;;;;;;;30.07;52.06;98169.59;5138501;28;20528;-62
2022/07/24 11:39:02;;;;;;;;;;;;;;;29.99;51.68;98166.00;5138764;28;19959;-62
2022/07/24 11:41:29;;;;;;;;;;;;;;;29.93;51.75;98156.53;5141806;28;19931;-61
2022/07/24 11:43:55;;;;;;;;;;;;;;;30.23;51.93;98150.78;5138493;28;19923;-60
2022/07/24 11:46:34;;;;;;;;;;;;;;;29.93;51.70;98156.53;5138252;28;19934;-60
2022/07/24 11:49:03;;;;;;;;;;;;;;;30.15;51.82;98149.16;5138387;28;19924;-61
2022/07/24 11:51:30;;;;;;;;;;;;;;;30.75;52.47;98149.44;5141943;28;19923;-60
2022/07/24 11:53:56;;;;;;;;;;;;;;;30.77;49.47;98138.78;5141832;28;19962;-61
2022/07/24 11:56:23;;;;;;;;;;;;;;;30.79;48.31;98139.22;5138028;28;20482;-60
2022/07/24 11:58:49;;;;;;;;;;;;;;;30.69;49.26;98136.41;5138292;28;19923;-60
2022/07/24 12:01:19;;;;;;;;;;;;;;;30.58;49.54;98138.38;5140623;28;19959;-60
2022/07/24 12:03:50;;;;;;;;;;;;;;;30.63;49.96;98126.94;5141779;28;19927;-60
2022/07/24 12:06:17;;;;;;;;;;;;;;;30.53;49.81;98128.50;5138926;28;19930;-61
2022/07/24 12:08:43;;;;;;;;;;;;;;;30.24;49.30;98130.31;5138023;28;19950;-60
2022/07/24 12:11:10;;;;;;;;;;;;;;;30.25;49.83;98126.38;5139427;28;19986;-61
2022/07/24 12:13:41;;;;;;;;;;;;;;;30.57;50.31;98123.78;5138075;28;19950;-60
2022/07/24 12:16:07;;;;;;;;;;;;;;;30.77;50.26;98115.94;5139976;28;19923;-60
2022/07/24 12:18:33;;;;;;;;;;;;;;;30.87;49.78;98109.66;5138159;28;20018;-61
2022/07/24 12:21:02;;;;;;;;;;;;;;;31.01;48.55;98116.00;5138122;28;19924;-60
2022/07/24 12:23:29;;;;;;;;;;;;;;;31.12;48.31;98109.72;5141614;28;19974;-60
2022/07/24 12:25:56;;;;;;;;;;;;;;;31.20;48.13;98108.53;5141716;28;20447;-60
2022/07/24 12:28:23;;;;;;;;;;;;;;;31.29;48.58;98097.91;5138213;28;20434;-60
2022/07/24 12:30:50;;;;;;;;;;;;;;;31.29;49.33;98108.94;5138301;28;19920;-61
2022/07/24 12:33:29;;;;;;;;;;;;;;;31.50;47.29;98095.94;5140653;28;19924;-61
2022/07/24 12:35:56;;;;;;;;;;;;;;;31.44;47.49;98100.22;5143881;27;19920;-60
2022/07/24 12:38:28;;;;;;;;;;;;;;;31.69;47.98;98091.94;5141474;27;20003;-61
2022/07/24 12:41:05;;;;;;;;;;;;;;;31.66;48.00;98087.22;5141483;27;19969;-60
2022/07/24 12:43:31;;;;;;;;;;;;;;;31.72;47.47;98091.19;5133341;27;19955;-61
2022/07/24 12:46:07;;;;;;;;;;;;;;;31.57;46.60;98086.84;5144933;27;19935;-61